Weather observations for the past three days for
West Point, Middle Peninsula Regional Airport
Imperial (Metric)
Date Time (edt) Wind (mph) Vis. (mi.) Weather Sky Cond. Temperature (ºF) Relative Humidity Wind Chill (°F) Heat Index (°F) Pressure Precipitation (in)
Air Dwpt 6 hour altimeter (in) sea level (mb) 1 hr 3 hr 6 hr
Max. Min.
05 04:55 Calm 10.00 Fair CLR 72.1 70.7 95% 29.86 0.0
05 04:35 W 6 10.00 Fair CLR 72.7 70.7 94% 29.86 0.0
05 04:15 Calm 10.00 Fair CLR 72 70.2 94% 29.86 0.0
05 03:55 Calm 10.00 Fair CLR 72.5 70.7 94% 29.87 0.0
05 03:35 Calm 10.00 Fair CLR 72 70.3 95% 29.87 0.0
05 03:15 Calm 10.00 Fair CLR 73 70.7 92% 29.87 0.0
05 02:55 Calm 10.00 Fair CLR 73.4 70.7 91% 29.87 0.0
05 02:35 Calm 10.00 Fair CLR 73.2 70.9 92% 29.87 0.0
05 02:15 NW 5 10.00 Fair CLR 73.4 70.7 91% 29.88 0.0
05 01:55 W 8 10.00 Fair CLR 73.6 70.7 80.2 73.6 91% 29.88 0.0
05 01:35 W 6 10.00 Fair CLR 73.8 70.7 90% 29.9 0.0
05 01:15 W 9 10.00 Fair CLR 74.3 70.7 89% 29.9 0.0
05 00:55 W 6 10.00 Fair CLR 74.3 71.1 90% 29.91 0.0
05 00:35 W 6 10.00 Fair CLR 74.7 71.2 89% 29.92 0.0
05 00:15 W 8 10.00 Fair CLR 75.2 71.1 87% 75 29.92 0.0
04 23:55 W 9 10.00 Fair CLR 75.2 71.1 87% 75 29.92 0.0
04 23:35 W 12 10.00 Fair CLR 75.9 72.3 89% 76 29.92 0.0
04 23:15 W 8 G 16 10.00 Fair CLR 76.6 72.5 87% 78 29.92 0.0
04 22:55 W 6 10.00 Fair CLR 77 72 85% 78 29.92 0.0
04 22:35 Calm 10.00 Fair CLR 77.4 72 84% 79 29.92 0.0
04 22:15 W 6 10.00 Fair CLR 77.9 71.1 80% 80 29.92 0.0
04 21:55 W 6 10.00 Fair CLR 77.9 72.9 85% 80 29.92 0.0
04 21:35 Calm 10.00 Fair CLR 77.9 74.5 89% 80 29.92 0.0
04 21:15 N 3 10.00 Fair CLR 78.8 74.5 87% 82 29.92 0.0
04 20:55 Calm 10.00 Fair CLR 78.3 74.7 89% 81 29.91 0.0
04 20:35 Calm 10.00 Fair CLR 80.1 73.9 82% 85 29.91 0.0
04 20:15 Calm 10.00 Partly Cloudy SCT055 79.9 74.3 83% 84 29.91 0.0
04 19:55 Calm 10.00 Fair CLR 79.7 73.9 95 79 83% 84 29.89 0.0
04 19:35 Calm 10.00 Partly Cloudy SCT060 SCT075 79.5 74.3 84% 84 29.89 0.0
04 19:15 Calm 7.00 Partly Cloudy SCT060 SCT090 81.9 73 75% 87 29.91 0.0
04 18:55 NW 8 10.00 Partly Cloudy SCT065 83.7 73.4 71% 90 29.92 0.0
04 18:35 NE 5 10.00 Fair CLR 85.8 73.6 67% 93 29.88 0.0
04 18:15 NE 3 10.00 Fair CLR 86 74.3 68% 94 29.9 0.0
04 17:55 E 5 10.00 Fair CLR 87.3 74.3 65% 96 29.89 0.0
04 17:35 E 5 10.00 Fair CLR 90.7 70.9 52% 97 29.89 0.0
04 17:15 Calm 10.00 Fair CLR 93.2 69.1 45% 98 29.87 0.0
04 16:55 Calm 10.00 Fair CLR 93.4 68.9 45% 99 29.87 0.0
04 16:35 Calm 10.00 Fair CLR 93.6 67.8 43% 98 29.87 0.0
04 16:15 NW 3 10.00 Fair CLR 94.1 68.4 43% 99 29.88 0.0
04 15:55 N 3 10.00 Fair CLR 94.5 69.3 44% 100 29.89 0.0
04 15:35 Calm 10.00 Fair CLR 93.9 68.7 44% 99 29.89 0.0
04 15:15 NW 6 10.00 Fair CLR 93.7 68.2 43% 98 29.9 0.0
04 14:55 W 7 10.00 Fair CLR 93.6 69.8 46% 100 29.91 0.0
04 14:35 N 3 10.00 Fair CLR 93.6 71.1 48% 101 29.92 0.0
04 14:15 NW 6 10.00 Fair CLR 93.2 71.8 50% 101 29.92 0.0
04 13:55 W 3 10.00 Partly Cloudy SCT048 92.8 72.1 93 79.7 51% 101 29.93 0.0
04 13:35 W 7 10.00 Fair CLR 92.7 71.4 50% 100 29.94 0.0
04 13:15 W 3 10.00 Fair CLR 92.3 72.7 53% 101 29.94 0.0
04 12:55 NE 5 10.00 Fair CLR 91.6 73 55% 100 29.94 0.0
04 12:35 N 3 10.00 Fair CLR 91 72.5 55% 99 29.95 0.0
04 12:15 NW 7 10.00 Partly Cloudy SCT038 90.7 74.3 59% 101 29.95 0.0
04 11:35 N 6 10.00 Fair CLR 89.6 74.8 62% 100 29.96 0.0
04 11:15 Calm 10.00 Fair CLR 88.7 75.2 64% 99 29.96 0.0
04 10:55 Calm 10.00 Fair CLR 88.5 75.6 66% 99 29.95 0.0
04 10:35 Calm 10.00 Fair CLR 87.6 75.4 67% 98 29.95 0.0
04 10:15 W 6 10.00 Fair CLR 86.9 74.7 67% 96 29.95 0.0
04 09:55 W 5 10.00 Fair CLR 85.5 75.4 72% 95 29.94 0.0
04 09:35 W 6 10.00 Fair CLR 84.6 75.4 74% 93 29.94 0.0
04 09:15 W 7 10.00 Fair CLR 83.7 75.2 76% 92 29.94 0.0
04 08:55 W 6 10.00 Fair CLR 82.6 75 78% 90 29.95 0.0
04 08:35 W 8 10.00 Fair CLR 81.7 75 80% 88 29.95 0.0
04 08:15 SW 5 10.00 Fair CLR 80.6 74.7 82% 86 29.95 0.0
04 07:55 SW 5 10.00 Fair CLR 79.7 74.7 83.3 75 85% 84 29.95 0.0
04 07:35 SW 3 10.00 Fair CLR 78.6 74.3 87% 82 29.95 0.0
04 07:15 Calm 10.00 Fair CLR 77.9 73.9 88% 80 29.95 0.0
04 06:55 Calm 10.00 Fair CLR 77.4 73.4 88% 79 29.94 0.0
04 06:35 S 3 10.00 Fair CLR 77 73 88% 78 29.94 0.0
04 06:15 SW 3 10.00 Fair CLR 77 73.4 89% 78 29.94 0.0
04 05:55 S 3 10.00 Fair CLR 77 73.4 89% 78 29.94 0.0
04 05:15 Calm 10.00 Fair CLR 75.9 72.1 88% 76 29.96 0.0
04 04:55 SE 3 10.00 Fair CLR 75.7 71.8 88% 76 29.96 0.0
04 04:35 SE 5 10.00 Fair CLR 75.6 71.6 88% 75 29.95 0.0
04 04:15 Calm 10.00 Fair CLR 75.2 71.2 88% 75 29.95 0.0
04 03:55 S 6 10.00 Fair CLR 75.4 70.9 86% 75 29.95 0.0
04 03:35 Calm 10.00 Fair CLR 75.6 70.7 85% 76 29.95 0.0
04 03:15 Calm 10.00 Fair CLR 76.1 70.5 83% 77 29.96 0.0
04 02:55 NE 5 10.00 Partly Cloudy SCT045 SCT050 SCT075 77.5 70.2 78% 79 29.95 0.0
04 02:35 NE 9 G 20 10.00 Overcast SCT028 BKN046 OVC100 79.7 71.4 76% 83 29.97 0.0
04 02:15 NW 12 G 25 10.00 Partly Cloudy SCT024 SCT080 83.1 74.8 76% 90 29.97 0.0
04 01:55 SW 9 10.00 Fair CLR 83.3 75 83.7 80.1 76% 91 29.93 0.0
04 01:35 SW 8 10.00 Fair CLR 83.3 75.4 77% 91 29.93 0.0
04 01:15 SW 5 10.00 Fair CLR 83.3 76.5 80% 92 29.94 0.0
04 00:55 SW 3 10.00 Partly Cloudy SCT100 83.3 77.2 82% 93 29.94 0.0
04 00:35 Calm 10.00 Partly Cloudy SCT090 82.2 78.1 87% 91 29.95 0.0
04 00:15 SE 3 10.00 Mostly Cloudy BKN090 83.3 78.3 85% 94 29.95 0.0
03 23:55 S 6 10.00 Partly Cloudy SCT090 SCT110 83.3 78.3 85% 94 29.95 0.0
03 23:35 S 5 10.00 Partly Cloudy SCT100 83.3 77.9 84% 93 29.95 0.0
03 23:15 S 5 10.00 Partly Cloudy SCT100 83.3 78.1 84% 94 29.96 0.0
03 22:55 S 5 10.00 Fair CLR 82.6 79.2 89% 93 29.96 0.0
03 22:35 S 5 10.00 Fair CLR 82.8 79.9 91% 94 29.96 0.0
03 22:15 SE 5 10.00 Fair CLR 82.6 79.9 92% 94 29.97 0.0
03 21:55 SE 6 10.00 Fair CLR 82 79.7 93% 92 29.97 0.0
03 21:35 Calm 10.00 Fair CLR 81 78.6 93% 89 29.98 0.0
03 21:15 Calm 10.00 Fair CLR 81.5 78.8 92% 90 29.98 0.0
03 20:55 Calm 7.00 Fair CLR 80.8 79 94% 89 29.99 0.0
03 20:35 Calm 7.00 Fair CLR 82 79 90% 92 29.98 0.0
03 20:15 Calm 5.00 Fair CLR 81.5 79.3 93% 91 29.97 0.0
03 19:55 Calm 7.00 Fair CLR 82 78.8 92.3 82 90% 92 29.96 0.0
03 19:35 Calm 5.00 Fair CLR 83.3 79.5 88% 95 29.95 0.0
03 19:15 Calm 5.00 Fair CLR 83.5 79.3 87% 95 29.95 0.0
03 18:55 Calm 5.00 Fair CLR 86.2 79.2 80% 100 29.95 0.0
03 18:35 Calm 7.00 Fair CLR 88.9 79.2 73% 105 29.94 0.0
03 18:15 Calm 7.00 Fair CLR 91.8 75.4 59% 103 29.95 0.0
03 17:55 Calm 5.00 Fair CLR 90 78.8 70% 106 29.95 0.0
03 17:35 Calm 5.00 Fair CLR 91.4 75.6 60% 103 29.95 0.0
03 17:15 Calm 7.00 Fair CLR 91.8 75.6 59% 104 29.95 0.0
03 16:55 SW 3 7.00 Fair CLR 91.9 74.8 57% 103 29.96 0.0
03 16:35 SW 3 7.00 Fair CLR 91.6 76.1 61% 104 29.97 0.0
03 16:15 SW 3 7.00 Fair CLR 90.9 75 60% 102 29.97 0.0
03 15:55 Calm 7.00 Fair CLR 90.5 75.9 62% 102 29.97 0.0
03 15:35 SW 3 5.00 Fair CLR 90 76.3 64% 102 29.98 0.0
03 15:15 Calm 7.00 Fair CLR 91.2 76.1 61% 104 29.99 0.0
03 14:55 W 3 7.00 Fair CLR 90.5 75.6 62% 102 29.99 0.0
03 14:35 W 5 10.00 Fair CLR 89.8 75.6 63% 101 30.01 0.0
03 14:15 Calm 7.00 Fair CLR 89.6 75 62% 100 30.02 0.0
03 13:55 Calm 10.00 Fair CLR 89.2 75.7 89.2 76.5 65% 100 30.02 0.0
03 13:35 Calm 10.00 Fair CLR 88.3 74.3 63% 97 30.02 0.0
03 13:15 S 5 10.00 Fair CLR 87.4 75 67% 97 30.02 0.0
03 12:55 SW 5 10.00 Fair CLR 86.5 75.2 69% 96 30.03 0.0
03 12:35 Calm 10.00 Partly Cloudy SCT020 86.2 75.4 70% 96 30.04 0.0
03 12:15 SW 3 10.00 Partly Cloudy SCT018 85.3 76.3 75% 95 30.05 0.0
03 11:55 S 3 10.00 Partly Cloudy SCT016 SCT024 83.5 76.5 79% 92 30.05 0.0
03 11:35 S 5 10.00 Partly Cloudy SCT016 SCT024 82.9 76.6 81% 92 30.05 0.0
03 11:15 S 5 10.00 Mostly Cloudy BKN016 BKN024 83.7 77.2 81% 93 30.05 0.0
03 10:55 Calm 10.00 Mostly Cloudy SCT014 BKN020 82.9 75.9 79% 91 30.05 0.0
03 10:35 SE 5 10.00 Mostly Cloudy BKN012 82.6 77.5 85% 92 30.05 0.0
03 10:15 Calm 7.00 Mostly Cloudy BKN010 80.8 76.8 88% 87 30.05 0.0
03 09:55 SE 5 5.00 Overcast SCT003 OVC010 79 77.2 94% 83 30.05 0.0
03 09:35 E 5 3.00 Overcast BKN001 OVC008 77.9 77.4 98% 80 30.06 0.0
03 09:15 E 5 1.25 Overcast OVC001 77 76.6 99% 78 30.06 0.0
03 08:55 Calm 1.25 Overcast OVC001 76.8 76.3 98% 77 30.06 0.0
03 08:35 Calm 1.25 Overcast OVC001 77 76.8 99% 78 30.06 0.0
03 08:15 Calm 1.50 Overcast OVC001 76.5 76.1 99% 76 30.06 0.0
03 07:35 Calm 5.00 Overcast OVC001 74.5 73.9 98% 30.04 0.0
03 07:15 Calm 10.00 Overcast OVC003 72.5 72 98% 30.03 0.0
03 06:55 Calm 7.00 Overcast OVC005 71.8 71.4 99% 30.03 0.0
03 06:35 Calm 10.00 Mostly Cloudy BKN007 71.8 71.4 99% 30.03 0.0
03 06:15 Calm 10.00 Fair CLR 71.1 70.7 99% 30.03 0.0
03 05:55 Calm 10.00 Fair CLR 71.4 70.9 98% 30.03 0.0
03 05:35 Calm 10.00 Fair CLR 70.9 70.5 99% 30.03 0.0
03 05:15 Calm 10.00 Fair CLR 70.2 69.8 99% 30.03 0.0
03 04:35 Calm 10.00 Fair CLR 71.1 70.5 98% 30.02 0.0
03 04:15 Calm 10.00 Fair CLR 70.2 69.8 99% 30.02 0.0
03 03:55 Calm 10.00 Fair CLR 71.2 70.7 98% 30.02 0.0
03 03:35 Calm 10.00 Fair CLR 71.6 71.1 98% 30.02 0.0
03 03:15 Calm 10.00 Fair CLR 71.6 70.9 98% 30.02 0.0
03 02:55 Calm 10.00 Fair CLR 70.9 70.3 98% 30.02 0.0
03 02:35 Calm 10.00 Fair CLR 70.9 70.3 98% 30.03 0.0
03 02:15 Calm 10.00 Fair CLR 71.8 71.1 98% 30.04 0.0
03 01:55 Calm 10.00 Fair CLR 71.6 71.1 80.2 71.6 98% 30.04 0.0
03 01:35 Calm 10.00 Fair CLR 71.8 71.1 98% 30.05 0.0
03 01:15 Calm 10.00 Fair CLR 72.5 71.2 96% 30.05 0.0
03 00:55 Calm 10.00 Fair CLR 72.1 70.7 95% 30.05 0.0
03 00:35 Calm 10.00 Fair CLR 73 71.4 95% 30.05 0.0
03 00:15 Calm 10.00 Fair CLR 73.4 70.9 92% 30.04 0.0
02 23:55 Calm 10.00 Fair CLR 73.4 71.1 92% 30.03 0.0
02 23:35 E 6 10.00 Fair CLR 72.9 70.9 94% 30.03 0.0
02 23:15 E 5 10.00 Fair CLR 73.4 71.1 92% 30.03 0.0
02 22:55 E 5 10.00 Fair CLR 73.9 71.6 92% 30.04 0.0
02 22:35 E 7 10.00 Fair CLR 74.7 72.7 94% 30.04 0.0
02 22:15 E 6 10.00 Fair CLR 75.2 74.1 96% 73 30.05 0.0
02 21:55 E 6 10.00 Fair CLR 75.7 74.7 96% 75 30.05 0.0
02 21:35 E 6 7.00 Fair CLR 76.1 75.2 97% 75 30.05 0.0
02 21:15 N 3 10.00 Fair CLR 77.4 75.7 95% 79 30.05 0.0
02 20:55 Calm 10.00 Fair CLR 78.8 75.6 90% 82 30.04 0.0
02 20:35 SW 6 10.00 Fair CLR 77.9 75.4 92% 80 30.04 0.0
02 20:15 Calm 10.00 Fair CLR 77.2 75.4 94% 78 30.01 0.0
02 19:55 E 3 10.00 Fair CLR 77.5 75.7 89.8 77.5 94% 79 30.02 0.0 0.01
02 19:35 Calm 10.00 Fair CLR 78.1 75.9 93% 81 30.04 0.0
02 19:15 Calm 10.00 Fair CLR 79 76.6 93% 83 30.05 0.0
02 18:55 E 3 10.00 Fair CLR 80.8 75.2 83% 87 30.04 0.0
02 18:35 Calm 10.00 Fair CLR 82 74.7 78% 88 30.05 0.0
02 18:15 SE 5 10.00 Fair CLR 82.2 75.2 79% 89 30.03 0.0
02 17:55 SE 3 10.00 Fair CLR 79.9 76.1 88% 85 30.04 0.0
02 17:35 Calm 10.00 Fair CLR 80.2 75.7 86% 86 30.07 0.0
02 17:15 SE 6 10.00 Fair CLR 80.1 76.3 88% 86 30.05 0.0
02 16:55 E 9 10.00 Partly Cloudy SCT031 SCT060 SCT090 79.9 76.8 90% 85 30.05 0.0 0.01 0.01
02 16:35 E 10 G 18 7.00 Mostly Cloudy SCT060 BKN085 BKN110 83.7 75 75% 91 30.07 0.0
02 16:15 E 13 10.00 Partly Cloudy SCT085 SCT095 88.3 74.7 64% 98 30.07 0.0
02 15:55 E 8 10.00 Mostly Cloudy BKN095 86.9 75 68% 96 30.06 0.0
02 15:35 E 8 10.00 Partly Cloudy SCT095 89.4 75.6 64% 100 30.06 0.0
02 15:15 E 9 10.00 Fair CLR 89.2 75.6 64% 100 30.06 0.0
02 14:55 E 9 10.00 Fair CLR 89.6 75.7 64% 101 30.06 0.0
02 14:35 E 8 10.00 Partly Cloudy SCT031 89.4 75.7 64% 101 30.07 0.0
02 14:15 E 5 10.00 Partly Cloudy SCT031 89.6 75.6 63% 101 30.07 0.0
02 13:55 E 5 10.00 Fair CLR 90 76.3 90 77.2 64% 102 30.06 0.0
02 13:35 E 7 10.00 Fair CLR 89.6 76.1 65% 101 30.06 0.0
02 13:15 E 9 10.00 Partly Cloudy SCT029 89.2 76.1 65% 101 30.06 0.0
02 12:55 E 7 10.00 Fair CLR 88.7 76.8 68% 101 30.06 0.0
02 12:35 E 6 10.00 Partly Cloudy SCT024 SCT029 SCT034 88.5 77 69% 101 30.06 0.0
02 12:15 E 6 10.00 Partly Cloudy SCT027 SCT034 88 77 70% 100 30.06 0.0
02 11:55 E 8 10.00 Fair CLR 88.2 76.5 68% 100 30.07 0.0
02 11:35 NE 6 10.00 Fair CLR 88.3 74.8 64% 98 30.07 0.0
02 11:15 E 8 10.00 Fair CLR 88.2 75.2 66% 98 30.07 0.0
02 10:55 NE 6 10.00 Fair CLR 87.8 74.8 66% 97 30.07 0.0
02 10:35 NE 3 10.00 Fair CLR 87.1 74.3 66% 96 30.07 0.0
02 10:15 NE 5 10.00 Fair CLR 86.9 75 68% 96 30.06 0.0
02 09:55 N 5 10.00 Fair CLR 84.9 74.7 71% 93 30.05 0.0
02 09:35 N 5 10.00 Fair CLR 83.3 73.9 73% 90 30.04 0.0
02 09:15 N 3 7.00 Fair CLR 81.9 73.8 77% 88 30.04 0.0
02 08:55 Calm 5.00 Fair CLR 79.9 73.4 81% 84 30.05 0.0
02 08:35 N 3 7.00 Fair CLR 79.3 73.2 82% 83 30.05 0.0
02 08:15 Calm 5.00 Fair CLR 78.3 73.6 86% 81 30.04 0.0
02 07:55 Calm 5.00 Fair CLR 77.2 73.8 77.2 72.1 89% 79 30.05 0.0
02 07:35 Calm 5.00 Fair CLR 76.1 73.6 92% 76 30.05 0.0
02 07:15 Calm 4.00 Fair CLR 74.7 73.8 97% 30.04 0.0
02 06:55 Calm 5.00 Fair CLR 73.6 72.7 97% 30.04 0.0
02 06:35 Calm 5.00 Fair CLR 73 72.3 98% 30.03 0.0
02 06:15 Calm 5.00 Fair CLR 74.3 73.8 98% 30.02 0.0
02 05:55 Calm 5.00 Fair CLR 73.6 73 98% 30.02 0.0
02 05:35 Calm 5.00 Fair CLR 72.3 71.8 98% 30.03 0.0
02 05:15 Calm 7.00 Fair CLR 73.4 72.9 98% 30.02 0.0
Date Time (edt) Wind (mph) Vis. (mi.) Weather Sky Cond. Air Dwpt Max. Min. Relative Humidity Wind Chill (°F) Heat Index (°F) altimeter (in) sea level (mb) 1 hr 3 hr 6 hr
6 hour
Temperature (ºF) Pressure Precipitation (in)